sensor_id;sensor_type;location;lat;lon;timestamp;pressure;altitude;pressure_sealevel;temperature;humidity
40155;BME280;25875;48.202;16.334;2023-03-31T00:02:21;98731.03;;;10.45;65.23
40155;BME280;25875;48.202;16.334;2023-03-31T00:04:48;98746.06;;;10.45;65.21
40155;BME280;25875;48.202;16.334;2023-03-31T00:07:18;98744.56;;;10.41;65.24
40155;BME280;25875;48.202;16.334;2023-03-31T00:09:49;98747.31;;;10.39;65.06
40155;BME280;25875;48.202;16.334;2023-03-31T00:12:20;98176.47;;;7.01;65.03
40155;BME280;25875;48.202;16.334;2023-03-31T00:14:47;98713.59;;;10.14;64.99
40155;BME280;25875;48.202;16.334;2023-03-31T00:17:15;98751.13;;;10.35;65.04
40155;BME280;25875;48.202;16.334;2023-03-31T00:19:42;98750.38;;;10.33;65.20
40155;BME280;25875;48.202;16.334;2023-03-31T00:22:09;98735.41;;;10.32;65.24
40155;BME280;25875;48.202;16.334;2023-03-31T00:24:36;98739.97;;;10.30;64.96
40155;BME280;25875;48.202;16.334;2023-03-31T00:27:04;98734.75;;;10.28;65.18
40155;BME280;25875;48.202;16.334;2023-03-31T00:29:31;98754.34;;;10.26;65.15
40155;BME280;25875;48.202;16.334;2023-03-31T00:32:00;98684.03;;;9.93;65.08
40155;BME280;25875;48.202;16.334;2023-03-31T00:34:28;98732.50;;;10.22;65.09
40155;BME280;25875;48.202;16.334;2023-03-31T00:36:55;98736.19;;;10.20;65.28
40155;BME280;25875;48.202;16.334;2023-03-31T00:39:23;98725.69;;;10.18;65.33
40155;BME280;25875;48.202;16.334;2023-03-31T00:41:50;98724.94;;;10.16;65.23
40155;BME280;25875;48.202;16.334;2023-03-31T00:44:18;98725.91;;;10.15;65.21
40155;BME280;25875;48.202;16.334;2023-03-31T00:46:51;98717.19;;;10.13;65.12
40155;BME280;25875;48.202;16.334;2023-03-31T00:49:22;98718.16;;;10.12;65.21
40155;BME280;25875;48.202;16.334;2023-03-31T00:51:55;98712.94;;;10.11;64.96
40155;BME280;25875;48.202;16.334;2023-03-31T00:54:24;98706.81;;;10.10;65.25
40155;BME280;25875;48.202;16.334;2023-03-31T00:56:54;98704.25;;;10.09;65.33
40155;BME280;25875;48.202;16.334;2023-03-31T00:59:29;98702.66;;;10.06;65.25
40155;BME280;25875;48.202;16.334;2023-03-31T01:01:59;98703.50;;;10.07;65.24
40155;BME280;25875;48.202;16.334;2023-03-31T01:04:29;98645.91;;;9.69;65.35
40155;BME280;25875;48.202;16.334;2023-03-31T01:07:04;98703.59;;;10.05;65.42
40155;BME280;25875;48.202;16.334;2023-03-31T01:09:33;98697.34;;;10.06;65.34
40155;BME280;25875;48.202;16.334;2023-03-31T01:12:05;98698.31;;;10.05;65.25
40155;BME280;25875;48.202;16.334;2023-03-31T01:14:33;98692.91;;;10.07;65.26
40155;BME280;25875;48.202;16.334;2023-03-31T01:17:00;98688.66;;;10.04;65.39
40155;BME280;25875;48.202;16.334;2023-03-31T01:19:35;98678.28;;;10.01;65.54
40155;BME280;25875;48.202;16.334;2023-03-31T01:28:19;98675.72;;;10.00;65.47
40155;BME280;25875;48.202;16.334;2023-03-31T01:31:20;98635.88;;;9.74;65.58
40155;BME280;25875;48.202;16.334;2023-03-31T01:34:37;98667.97;;;9.97;65.63
40155;BME280;25875;48.202;16.334;2023-03-31T01:40:47;98670.81;;;9.93;65.79
40155;BME280;25875;48.202;16.334;2023-03-31T01:43:22;98671.84;;;9.91;65.97
40155;BME280;25875;48.202;16.334;2023-03-31T01:45:56;98683.28;;;9.91;65.96
40155;BME280;25875;48.202;16.334;2023-03-31T01:48:37;98676.19;;;9.92;66.04
40155;BME280;25875;48.202;16.334;2023-03-31T01:51:10;98633.22;;;9.74;65.74
40155;BME280;25875;48.202;16.334;2023-03-31T01:53:46;98661.06;;;9.94;65.97
40155;BME280;25875;48.202;16.334;2023-03-31T01:56:19;98666.38;;;9.94;65.88
40155;BME280;25875;48.202;16.334;2023-03-31T01:58:51;98661.94;;;9.94;65.82
40155;BME280;25875;48.202;16.334;2023-03-31T02:01:21;98653.88;;;9.96;65.65
40155;BME280;25875;48.202;16.334;2023-03-31T02:03:53;98626.13;;;9.75;65.54
40155;BME280;25875;48.202;16.334;2023-03-31T02:06:24;98523.84;;;9.18;65.60
40155;BME280;25875;48.202;16.334;2023-03-31T02:08:55;98646.03;;;9.94;65.83
40155;BME280;25875;48.202;16.334;2023-03-31T02:11:27;98645.19;;;9.94;65.86
40155;BME280;25875;48.202;16.334;2023-03-31T02:13:58;98596.00;;;9.63;65.68
40155;BME280;25875;48.202;16.334;2023-03-31T02:16:28;98639.03;;;9.93;65.46
40155;BME280;25875;48.202;16.334;2023-03-31T02:18:58;98640.94;;;9.91;65.76
40155;BME280;25875;48.202;16.334;2023-03-31T02:21:28;98574.13;;;9.47;65.76
40155;BME280;25875;48.202;16.334;2023-03-31T02:23:57;98631.31;;;9.90;65.87
40155;BME280;25875;48.202;16.334;2023-03-31T02:26:29;98629.59;;;9.89;65.71
40155;BME280;25875;48.202;16.334;2023-03-31T02:28:57;98551.06;;;9.35;65.62
40155;BME280;25875;48.202;16.334;2023-03-31T02:31:27;98622.81;;;9.85;65.76
40155;BME280;25875;48.202;16.334;2023-03-31T02:33:55;98622.81;;;9.85;65.76
40155;BME280;25875;48.202;16.334;2023-03-31T02:36:23;98625.44;;;9.85;66.00
40155;BME280;25875;48.202;16.334;2023-03-31T02:38:53;98619.41;;;9.83;66.47
40155;BME280;25875;48.202;16.334;2023-03-31T02:41:21;98615.91;;;9.83;66.31
40155;BME280;25875;48.202;16.334;2023-03-31T02:43:50;98574.09;;;9.61;66.23
40155;BME280;25875;48.202;16.334;2023-03-31T02:46:16;98603.72;;;9.80;66.10
40155;BME280;25875;48.202;16.334;2023-03-31T02:48:46;98486.56;;;9.09;66.18
40155;BME280;25875;48.202;16.334;2023-03-31T02:51:42;98599.03;;;9.71;66.15
40155;BME280;25875;48.202;16.334;2023-03-31T02:54:33;98603.16;;;9.75;66.35
40155;BME280;25875;48.202;16.334;2023-03-31T02:57:29;98593.53;;;9.74;66.30
40155;BME280;25875;48.202;16.334;2023-03-31T03:00:07;98596.28;;;9.73;66.09
40155;BME280;25875;48.202;16.334;2023-03-31T03:02:42;98592.78;;;9.72;66.29
40155;BME280;25875;48.202;16.334;2023-03-31T03:05:27;98600.63;;;9.74;66.19
40155;BME280;25875;48.202;16.334;2023-03-31T03:08:08;98592.78;;;9.72;65.99
40155;BME280;25875;48.202;16.334;2023-03-31T03:10:45;98591.94;;;9.72;66.20
40155;BME280;25875;48.202;16.334;2023-03-31T03:13:20;98595.44;;;9.72;65.96
40155;BME280;25875;48.202;16.334;2023-03-31T03:15:55;98592.88;;;9.71;65.99
40155;BME280;25875;48.202;16.334;2023-03-31T03:18:26;98598.16;;;9.71;66.07
40155;BME280;25875;48.202;16.334;2023-03-31T03:20:53;98591.09;;;9.71;65.98
40155;BME280;25875;48.202;16.334;2023-03-31T03:23:20;98590.22;;;9.71;65.88
40155;BME280;25875;48.202;16.334;2023-03-31T03:25:47;98585.03;;;9.69;65.95
40155;BME280;25875;48.202;16.334;2023-03-31T03:28:13;98582.50;;;9.68;66.00
40155;BME280;25875;48.202;16.334;2023-03-31T03:30:41;98572.00;;;9.66;65.92
40155;BME280;25875;48.202;16.334;2023-03-31T03:33:10;98573.06;;;9.63;65.97
40155;BME280;25875;48.202;16.334;2023-03-31T03:35:41;98568.59;;;9.64;65.97
40155;BME280;25875;48.202;16.334;2023-03-31T03:38:08;98541.91;;;9.40;65.96
40155;BME280;25875;48.202;16.334;2023-03-31T03:40:35;98574.09;;;9.61;65.99
40155;BME280;25875;48.202;16.334;2023-03-31T03:43:01;98566.34;;;9.58;66.04
40155;BME280;25875;48.202;16.334;2023-03-31T03:45:28;98564.66;;;9.57;65.97
40155;BME280;25875;48.202;16.334;2023-03-31T03:47:55;98569.19;;;9.55;65.99
40155;BME280;25875;48.202;16.334;2023-03-31T03:50:23;98567.50;;;9.54;65.96
40155;BME280;25875;48.202;16.334;2023-03-31T03:52:50;98575.53;;;9.52;65.98
40155;BME280;25875;48.202;16.334;2023-03-31T03:55:16;98571.28;;;9.50;66.21
40155;BME280;25875;48.202;16.334;2023-03-31T03:57:43;98576.66;;;9.48;66.05
40155;BME280;25875;48.202;16.334;2023-03-31T04:00:11;98567.88;;;9.48;66.18
40155;BME280;25875;48.202;16.334;2023-03-31T04:02:38;98564.47;;;9.46;66.17
40155;BME280;25875;48.202;16.334;2023-03-31T04:05:05;98562.88;;;9.43;66.19
40155;BME280;25875;48.202;16.334;2023-03-31T04:07:33;98555.78;;;9.44;66.23
40155;BME280;25875;48.202;16.334;2023-03-31T04:10:00;98557.69;;;9.42;66.18
40155;BME280;25875;48.202;16.334;2023-03-31T04:12:27;98544.56;;;9.40;66.18
40155;BME280;25875;48.202;16.334;2023-03-31T04:14:54;98550.09;;;9.36;66.31
40155;BME280;25875;48.202;16.334;2023-03-31T04:17:20;98541.41;;;9.34;66.79
40155;BME280;25875;48.202;16.334;2023-03-31T04:19:58;98536.31;;;9.30;66.56
40155;BME280;25875;48.202;16.334;2023-03-31T04:22:26;98542.66;;;9.28;66.44
40155;BME280;25875;48.202;16.334;2023-03-31T04:25:01;98545.50;;;9.25;66.51
40155;BME280;25875;48.202;16.334;2023-03-31T04:27:28;98536.91;;;9.21;66.52
40155;BME280;25875;48.202;16.334;2023-03-31T04:29:55;98440.06;;;8.63;66.69
40155;BME280;25875;48.202;16.334;2023-03-31T04:32:22;98537.00;;;9.20;66.58
40155;BME280;25875;48.202;16.334;2023-03-31T04:34:49;98537.16;;;9.17;66.63
40155;BME280;25875;48.202;16.334;2023-03-31T04:37:16;98493.09;;;8.89;66.52
40155;BME280;25875;48.202;16.334;2023-03-31T04:39:43;98532.16;;;9.12;66.83
40155;BME280;25875;48.202;16.334;2023-03-31T04:42:12;98520.25;;;9.05;66.78
40155;BME280;25875;48.202;16.334;2023-03-31T04:44:39;98512.34;;;9.05;66.72
40155;BME280;25875;48.202;16.334;2023-03-31T04:47:06;98514.22;;;9.03;66.82
40155;BME280;25875;48.202;16.334;2023-03-31T04:49:32;98479.50;;;8.81;66.76
40155;BME280;25875;48.202;16.334;2023-03-31T04:52:00;98516.97;;;9.02;66.70
40155;BME280;25875;48.202;16.334;2023-03-31T04:54:27;98509.31;;;8.97;66.76
40155;BME280;25875;48.202;16.334;2023-03-31T04:56:54;98511.03;;;8.98;66.83
40155;BME280;25875;48.202;16.334;2023-03-31T04:59:22;98504.03;;;8.97;66.84
40155;BME280;25875;48.202;16.334;2023-03-31T05:01:49;98511.03;;;8.98;66.88
40155;BME280;25875;48.202;16.334;2023-03-31T05:04:16;98500.63;;;8.95;66.93
40155;BME280;25875;48.202;16.334;2023-03-31T05:06:43;98501.50;;;8.95;66.84
40155;BME280;25875;48.202;16.334;2023-03-31T05:09:09;98499.69;;;8.96;66.84
40155;BME280;25875;48.202;16.334;2023-03-31T05:11:36;98486.19;;;8.86;66.65
40155;BME280;25875;48.202;16.334;2023-03-31T05:14:03;98440.25;;;8.60;66.79
40155;BME280;25875;48.202;16.334;2023-03-31T05:16:31;98495.34;;;8.95;66.81
40155;BME280;25875;48.202;16.334;2023-03-31T05:18:58;98505.06;;;8.94;66.94
40155;BME280;25875;48.202;16.334;2023-03-31T05:21:25;98499.88;;;8.93;66.95
40155;BME280;25875;48.202;16.334;2023-03-31T05:23:54;98494.59;;;8.93;66.98
40155;BME280;25875;48.202;16.334;2023-03-31T05:26:21;98498.19;;;8.92;66.93
40155;BME280;25875;48.202;16.334;2023-03-31T05:28:49;98491.09;;;8.92;67.01
40155;BME280;25875;48.202;16.334;2023-03-31T05:31:16;98497.44;;;8.90;67.31
40155;BME280;25875;48.202;16.334;2023-03-31T05:33:45;98501.03;;;8.89;67.27
40155;BME280;25875;48.202;16.334;2023-03-31T05:36:14;98498.19;;;8.92;67.39
40155;BME280;25875;48.202;16.334;2023-03-31T05:38:41;98459.69;;;8.74;67.41
40155;BME280;25875;48.202;16.334;2023-03-31T05:41:09;98483.75;;;8.97;67.30
40155;BME280;25875;48.202;16.334;2023-03-31T05:43:36;98480.91;;;9.00;67.25
40155;BME280;25875;48.202;16.334;2023-03-31T05:46:04;98469.19;;;9.05;67.31
40155;BME280;25875;48.202;16.334;2023-03-31T05:48:30;98441.00;;;8.91;67.16
40155;BME280;25875;48.202;16.334;2023-03-31T05:50:59;98466.91;;;9.13;67.15
40155;BME280;25875;48.202;16.334;2023-03-31T05:53:26;98471.91;;;9.17;66.96
40155;BME280;25875;48.202;16.334;2023-03-31T05:55:56;98455.78;;;9.22;66.84
40155;BME280;25875;48.202;16.334;2023-03-31T05:58:24;98449.38;;;9.26;66.85
40155;BME280;25875;48.202;16.334;2023-03-31T06:00:59;98419.44;;;9.11;66.78
40155;BME280;25875;48.202;16.334;2023-03-31T06:03:26;98412.16;;;9.15;66.38
40155;BME280;25875;48.202;16.334;2023-03-31T06:05:53;98441.69;;;9.36;66.49
40155;BME280;25875;48.202;16.334;2023-03-31T06:08:21;98436.19;;;9.39;66.31
40155;BME280;25875;48.202;16.334;2023-03-31T06:10:48;98428.34;;;9.51;66.05
40155;BME280;25875;48.202;16.334;2023-03-31T06:13:15;98424.69;;;9.67;65.70
40155;BME280;25875;48.202;16.334;2023-03-31T06:15:42;98424.84;;;9.90;65.31
40155;BME280;25875;48.202;16.334;2023-03-31T06:18:09;98421.09;;;10.20;64.61
40155;BME280;25875;48.202;16.334;2023-03-31T06:20:35;98411.13;;;10.36;64.04
40155;BME280;25875;48.202;16.334;2023-03-31T06:23:02;98414.19;;;10.55;63.48
40155;BME280;25875;48.202;16.334;2023-03-31T06:25:30;98409.75;;;10.81;62.48
40155;BME280;25875;48.202;16.334;2023-03-31T06:27:57;98407.91;;;10.95;61.99
40155;BME280;25875;48.202;16.334;2023-03-31T06:30:24;98408.22;;;11.03;61.67
40155;BME280;25875;48.202;16.334;2023-03-31T06:32:51;98364.53;;;10.96;61.33
40155;BME280;25875;48.202;16.334;2023-03-31T06:35:17;98370.13;;;11.04;61.07
40155;BME280;25875;48.202;16.334;2023-03-31T06:37:44;98390.91;;;11.34;61.06
40155;BME280;25875;48.202;16.334;2023-03-31T06:40:11;98394.03;;;11.51;60.78
40155;BME280;25875;48.202;16.334;2023-03-31T06:42:40;98357.94;;;11.49;60.44
40155;BME280;25875;48.202;16.334;2023-03-31T06:45:07;98340.16;;;11.62;59.89
40155;BME280;25875;48.202;16.334;2023-03-31T06:47:34;98386.44;;;11.93;59.72
40155;BME280;25875;48.202;16.334;2023-03-31T06:50:04;98379.31;;;11.82;60.22
40155;BME280;25875;48.202;16.334;2023-03-31T06:52:31;98383.75;;;11.82;60.67
40155;BME280;25875;48.202;16.334;2023-03-31T06:54:58;98383.25;;;11.77;60.68
40155;BME280;25875;48.202;16.334;2023-03-31T06:57:26;98372.88;;;11.74;60.82
40155;BME280;25875;48.202;16.334;2023-03-31T06:59:54;98370.34;;;11.72;61.01
40155;BME280;25875;48.202;16.334;2023-03-31T07:02:21;98360.69;;;11.71;61.13
40155;BME280;25875;48.202;16.334;2023-03-31T07:04:48;98362.50;;;11.71;60.73
40155;BME280;25875;48.202;16.334;2023-03-31T07:07:14;98315.50;;;11.49;60.99
40155;BME280;25875;48.202;16.334;2023-03-31T07:09:41;98250.59;;;11.07;60.96
40155;BME280;25875;48.202;16.334;2023-03-31T07:12:08;98285.50;;;11.60;60.81
40155;BME280;25875;48.202;16.334;2023-03-31T07:14:35;98341.44;;;12.38;60.54
40155;BME280;25875;48.202;16.334;2023-03-31T07:17:03;98333.69;;;12.46;59.75
40155;BME280;25875;48.202;16.334;2023-03-31T07:19:30;98335.75;;;12.42;59.50
40155;BME280;25875;48.202;16.334;2023-03-31T07:21:57;98330.69;;;12.39;59.48
40155;BME280;25875;48.202;16.334;2023-03-31T07:24:24;98299.72;;;12.16;59.57
40155;BME280;25875;48.202;16.334;2023-03-31T07:26:51;98330.56;;;12.30;59.57
40155;BME280;25875;48.202;16.334;2023-03-31T07:29:18;98335.28;;;12.26;59.35
40155;BME280;25875;48.202;16.334;2023-03-31T07:31:46;98321.25;;;12.24;59.51
40155;BME280;25875;48.202;16.334;2023-03-31T07:34:14;98319.56;;;12.23;59.55
40155;BME280;25875;48.202;16.334;2023-03-31T07:36:41;98307.97;;;12.24;59.70
40155;BME280;25875;48.202;16.334;2023-03-31T07:39:07;98296.75;;;12.21;59.47
40155;BME280;25875;48.202;16.334;2023-03-31T07:41:34;98263.75;;;12.01;59.52
40155;BME280;25875;48.202;16.334;2023-03-31T07:44:02;98246.44;;;11.84;59.52
40155;BME280;25875;48.202;16.334;2023-03-31T07:46:29;98287.41;;;12.15;59.85
40155;BME280;25875;48.202;16.334;2023-03-31T07:48:56;98288.50;;;12.12;59.85
40155;BME280;25875;48.202;16.334;2023-03-31T07:51:27;98253.69;;;11.93;59.81
40155;BME280;25875;48.202;16.334;2023-03-31T07:53:55;98281.38;;;12.13;59.94
40155;BME280;25875;48.202;16.334;2023-03-31T07:56:23;98277.91;;;12.35;59.70
40155;BME280;25875;48.202;16.334;2023-03-31T07:58:50;98237.47;;;12.31;59.37
40155;BME280;25875;48.202;16.334;2023-03-31T08:01:19;98275.09;;;12.70;58.67
40155;BME280;25875;48.202;16.334;2023-03-31T08:03:50;98270.84;;;12.78;59.03
40155;BME280;25875;48.202;16.334;2023-03-31T08:06:19;98272.75;;;12.88;58.36
40155;BME280;25875;48.202;16.334;2023-03-31T08:08:49;98272.28;;;12.82;58.55
40155;BME280;25875;48.202;16.334;2023-03-31T08:11:16;98264.19;;;12.84;58.15
40155;BME280;25875;48.202;16.334;2023-03-31T08:13:43;98251.59;;;12.86;58.43
40155;BME280;25875;48.202;16.334;2023-03-31T08:16:10;98236.66;;;12.74;58.40
40155;BME280;25875;48.202;16.334;2023-03-31T08:18:36;98255.00;;;12.77;57.75
40155;BME280;25875;48.202;16.334;2023-03-31T08:21:03;98248.97;;;12.75;57.68
40155;BME280;25875;48.202;16.334;2023-03-31T08:23:30;98241.50;;;12.69;57.93
40155;BME280;25875;48.202;16.334;2023-03-31T08:26:08;98093.56;;;11.81;56.38
40155;BME280;25875;48.202;16.334;2023-03-31T08:28:35;98228.31;;;12.67;57.93
40155;BME280;25875;48.202;16.334;2023-03-31T08:31:03;98230.84;;;12.69;57.65
40155;BME280;25875;48.202;16.334;2023-03-31T08:33:31;98141.22;;;12.05;57.77
40155;BME280;25875;48.202;16.334;2023-03-31T08:36:01;98219.75;;;12.64;57.24
40155;BME280;25875;48.202;16.334;2023-03-31T08:38:28;98212.88;;;12.61;57.77
40155;BME280;25875;48.202;16.334;2023-03-31T08:40:58;98209.38;;;12.61;57.35
40155;BME280;25875;48.202;16.334;2023-03-31T08:43:30;98209.25;;;12.62;57.58
40155;BME280;25875;48.202;16.334;2023-03-31T08:46:00;98202.13;;;12.63;57.30
40155;BME280;25875;48.202;16.334;2023-03-31T08:48:29;98198.50;;;12.64;57.33
40155;BME280;25875;48.202;16.334;2023-03-31T08:51:03;98168.22;;;12.44;57.07
40155;BME280;25875;48.202;16.334;2023-03-31T08:53:35;98189.81;;;12.62;57.16
40155;BME280;25875;48.202;16.334;2023-03-31T08:56:08;98178.31;;;12.61;57.69
40155;BME280;25875;48.202;16.334;2023-03-31T08:58:42;98066.88;;;11.94;57.47
40155;BME280;25875;48.202;16.334;2023-03-31T09:01:17;98158.75;;;12.62;57.22
40155;BME280;25875;48.202;16.334;2023-03-31T09:04:00;98063.00;;;12.09;57.36
40155;BME280;25875;48.202;16.334;2023-03-31T09:06:35;98088.00;;;12.07;57.92
40155;BME280;25875;48.202;16.334;2023-03-31T09:09:09;98125.34;;;12.48;57.67
40155;BME280;25875;48.202;16.334;2023-03-31T09:11:40;98146.91;;;12.66;57.11
40155;BME280;25875;48.202;16.334;2023-03-31T09:14:25;98150.66;;;12.64;56.73
40155;BME280;25875;48.202;16.334;2023-03-31T09:17:01;98159.47;;;12.64;57.26
40155;BME280;25875;48.202;16.334;2023-03-31T09:19:38;98125.34;;;12.48;57.63
40155;BME280;25875;48.202;16.334;2023-03-31T09:22:11;98121.00;;;12.47;56.39
40155;BME280;25875;48.202;16.334;2023-03-31T09:24:44;98150.06;;;12.60;56.25
40155;BME280;25875;48.202;16.334;2023-03-31T09:27:13;98142.94;;;12.61;57.56
40155;BME280;25875;48.202;16.334;2023-03-31T09:29:43;98138.34;;;12.63;57.48
40155;BME280;25875;48.202;16.334;2023-03-31T09:32:15;98131.78;;;12.67;57.49
40155;BME280;25875;48.202;16.334;2023-03-31T09:34:42;98133.22;;;12.71;57.60
40155;BME280;25875;48.202;16.334;2023-03-31T09:37:11;98121.63;;;12.72;57.43
40155;BME280;25875;48.202;16.334;2023-03-31T09:39:39;98118.84;;;12.73;57.47
40155;BME280;25875;48.202;16.334;2023-03-31T09:42:08;98109.75;;;12.76;57.26
40155;BME280;25875;48.202;16.334;2023-03-31T09:44:37;98105.03;;;12.79;57.49
40155;BME280;25875;48.202;16.334;2023-03-31T09:47:11;98106.59;;;12.82;56.96
40155;BME280;25875;48.202;16.334;2023-03-31T09:49:44;98101.84;;;12.86;57.04
40155;BME280;25875;48.202;16.334;2023-03-31T09:52:14;98090.13;;;12.88;57.17
40155;BME280;25875;48.202;16.334;2023-03-31T09:54:47;98084.53;;;12.91;56.94
40155;BME280;25875;48.202;16.334;2023-03-31T09:57:23;98070.91;;;12.84;56.10
40155;BME280;25875;48.202;16.334;2023-03-31T09:59:51;98076.44;;;12.93;56.96
40155;BME280;25875;48.202;16.334;2023-03-31T10:02:35;98080.91;;;12.92;55.61
40155;BME280;25875;48.202;16.334;2023-03-31T10:05:06;98074.63;;;12.93;56.87
40155;BME280;25875;48.202;16.334;2023-03-31T10:07:34;98068.91;;;12.98;56.88
40155;BME280;25875;48.202;16.334;2023-03-31T10:10:01;97972.31;;;12.46;56.49
40155;BME280;25875;48.202;16.334;2023-03-31T10:12:29;98062.94;;;13.05;56.61
40155;BME280;25875;48.202;16.334;2023-03-31T10:15:12;98053.25;;;13.04;55.72
40155;BME280;25875;48.202;16.334;2023-03-31T10:17:44;98064.34;;;13.09;56.09
40155;BME280;25875;48.202;16.334;2023-03-31T10:20:29;98057.09;;;13.11;54.88
40155;BME280;25875;48.202;16.334;2023-03-31T10:23:02;98058.06;;;13.10;55.66
40155;BME280;25875;48.202;16.334;2023-03-31T10:25:31;97928.50;;;12.40;55.93
40155;BME280;25875;48.202;16.334;2023-03-31T10:28:00;98041.97;;;13.12;56.11
40155;BME280;25875;48.202;16.334;2023-03-31T10:30:32;97965.50;;;12.74;55.83
40155;BME280;25875;48.202;16.334;2023-03-31T10:33:04;98023.66;;;13.19;54.92
40155;BME280;25875;48.202;16.334;2023-03-31T10:35:32;98029.56;;;13.22;55.67
40155;BME280;25875;48.202;16.334;2023-03-31T10:38:03;98023.38;;;13.22;55.09
40155;BME280;25875;48.202;16.334;2023-03-31T10:40:33;97994.75;;;13.04;55.57
40155;BME280;25875;48.202;16.334;2023-03-31T10:43:04;98000.13;;;13.14;54.97
40155;BME280;25875;48.202;16.334;2023-03-31T10:45:37;98027.50;;;13.35;55.05
40155;BME280;25875;48.202;16.334;2023-03-31T10:48:17;98032.44;;;13.40;53.88
40155;BME280;25875;48.202;16.334;2023-03-31T10:50:44;98042.00;;;13.42;54.98
40155;BME280;25875;48.202;16.334;2023-03-31T10:53:12;97986.38;;;13.09;54.61
40155;BME280;25875;48.202;16.334;2023-03-31T10:55:48;98059.38;;;13.46;54.02
40155;BME280;25875;48.202;16.334;2023-03-31T10:58:25;98057.56;;;13.47;54.05
40155;BME280;25875;48.202;16.334;2023-03-31T11:01:02;98052.25;;;13.47;53.86
40155;BME280;25875;48.202;16.334;2023-03-31T11:03:45;98038.94;;;13.47;53.54
40155;BME280;25875;48.202;16.334;2023-03-31T11:06:17;97963.09;;;13.01;54.44
40155;BME280;25875;48.202;16.334;2023-03-31T11:08:53;98025.50;;;13.48;54.35
40155;BME280;25875;48.202;16.334;2023-03-31T11:11:44;98054.63;;;13.50;53.46
40155;BME280;25875;48.202;16.334;2023-03-31T11:14:20;98048.19;;;13.53;53.81
40155;BME280;25875;48.202;16.334;2023-03-31T11:16:57;98028.59;;;13.54;53.99
40155;BME280;25875;48.202;16.334;2023-03-31T11:19:36;98009.81;;;13.55;52.89
40155;BME280;25875;48.202;16.334;2023-03-31T11:22:13;97969.66;;;13.37;53.38
40155;BME280;25875;48.202;16.334;2023-03-31T11:28:05;97942.28;;;13.46;52.96
40155;BME280;25875;48.202;16.334;2023-03-31T11:30:40;97926.16;;;13.48;53.83
40155;BME280;25875;48.202;16.334;2023-03-31T11:33:30;97909.25;;;13.68;52.59
40155;BME280;25875;48.202;16.334;2023-03-31T11:36:14;97907.16;;;13.91;51.59
40155;BME280;25875;48.202;16.334;2023-03-31T11:38:52;97891.59;;;13.96;50.82
40155;BME280;25875;48.202;16.334;2023-03-31T11:41:29;97892.72;;;14.03;51.75
40155;BME280;25875;48.202;16.334;2023-03-31T11:44:00;97902.09;;;14.17;51.35
40155;BME280;25875;48.202;16.334;2023-03-31T11:46:36;97895.31;;;14.32;50.95
40155;BME280;25875;48.202;16.334;2023-03-31T11:49:10;97872.56;;;14.48;50.61
40155;BME280;25875;48.202;16.334;2023-03-31T11:51:47;97857.53;;;14.56;50.28
40155;BME280;25875;48.202;16.334;2023-03-31T11:54:19;97777.84;;;14.16;50.83
40155;BME280;25875;48.202;16.334;2023-03-31T11:56:50;97784.19;;;14.42;50.82
40155;BME280;25875;48.202;16.334;2023-03-31T11:59:20;97823.88;;;14.92;49.77
40155;BME280;25875;48.202;16.334;2023-03-31T12:01:52;97818.78;;;14.99;48.67
40155;BME280;25875;48.202;16.334;2023-03-31T12:04:26;97819.41;;;15.11;48.58
40155;BME280;25875;48.202;16.334;2023-03-31T12:07:03;97804.34;;;15.19;48.53
40155;BME280;25875;48.202;16.334;2023-03-31T12:09:36;97813.03;;;15.21;47.33
40155;BME280;25875;48.202;16.334;2023-03-31T12:12:05;97813.09;;;15.12;49.19
40155;BME280;25875;48.202;16.334;2023-03-31T12:14:39;97803.94;;;15.14;48.66
40155;BME280;25875;48.202;16.334;2023-03-31T12:17:09;97775.28;;;14.98;48.51
40155;BME280;25875;48.202;16.334;2023-03-31T12:19:44;97802.66;;;15.18;48.16
40155;BME280;25875;48.202;16.334;2023-03-31T12:22:17;97805.78;;;15.14;47.19
40155;BME280;25875;48.202;16.334;2023-03-31T12:24:45;97814.09;;;15.11;49.38
40155;BME280;25875;48.202;16.334;2023-03-31T12:27:16;97778.00;;;14.89;48.10
40155;BME280;25875;48.202;16.334;2023-03-31T12:29:51;97813.84;;;15.04;48.23
40155;BME280;25875;48.202;16.334;2023-03-31T12:32:23;97661.81;;;14.04;49.08
40155;BME280;25875;48.202;16.334;2023-03-31T12:34:55;97815.59;;;14.95;49.44
40155;BME280;25875;48.202;16.334;2023-03-31T12:37:57;97798.66;;;14.87;47.61
40155;BME280;25875;48.202;16.334;2023-03-31T12:40:35;97671.78;;;14.29;48.10
40155;BME280;25875;48.202;16.334;2023-03-31T12:46:12;97763.03;;;14.78;48.71
40155;BME280;25875;48.202;16.334;2023-03-31T12:48:54;97724.25;;;14.66;47.93
40155;BME280;25875;48.202;16.334;2023-03-31T12:51:42;97713.97;;;14.71;48.07
40155;BME280;25875;48.202;16.334;2023-03-31T12:54:21;97779.63;;;15.35;47.55
40155;BME280;25875;48.202;16.334;2023-03-31T12:57:12;97772.00;;;15.58;46.12
40155;BME280;25875;48.202;16.334;2023-03-31T12:59:42;97766.44;;;15.69;47.55
40155;BME280;25875;48.202;16.334;2023-03-31T13:02:32;97606.75;;;14.85;44.73
40155;BME280;25875;48.202;16.334;2023-03-31T13:08:08;97755.47;;;15.98;46.44
40155;BME280;25875;48.202;16.334;2023-03-31T13:10:52;97731.19;;;16.17;44.99
40155;BME280;25875;48.202;16.334;2023-03-31T13:13:22;97734.28;;;16.30;46.44
40155;BME280;25875;48.202;16.334;2023-03-31T13:15:53;97732.00;;;16.44;46.35
40155;BME280;25875;48.202;16.334;2023-03-31T13:18:21;97734.84;;;16.50;44.29
40155;BME280;25875;48.202;16.334;2023-03-31T13:20:57;97722.34;;;16.59;43.22
40155;BME280;25875;48.202;16.334;2023-03-31T13:23:26;97707.50;;;16.64;44.73
40155;BME280;25875;48.202;16.334;2023-03-31T13:25:56;97700.31;;;16.65;45.76
40155;BME280;25875;48.202;16.334;2023-03-31T13:28:38;97663.00;;;16.55;44.19
40155;BME280;25875;48.202;16.334;2023-03-31T13:31:08;97660.84;;;16.59;45.30
40155;BME280;25875;48.202;16.334;2023-03-31T13:33:48;97668.97;;;16.91;44.47